createdAt,value
2022-11-19T00:00:01.222Z,9.90
2022-11-19T00:02:27.708Z,9.67
2022-11-19T00:04:54.192Z,10.50
2022-11-19T00:07:20.658Z,10.30
2022-11-19T00:09:47.137Z,10.87
2022-11-19T00:12:32.303Z,10.07
2022-11-19T00:14:58.731Z,11.27
2022-11-19T00:17:25.218Z,9.90
2022-11-19T00:19:51.696Z,10.27
2022-11-19T00:22:18.093Z,9.67
2022-11-19T00:24:44.578Z,8.90
2022-11-19T00:27:11.045Z,9.57
2022-11-19T00:29:37.451Z,9.07
2022-11-19T00:32:03.978Z,9.07
2022-11-19T00:34:30.401Z,8.80
2022-11-19T00:36:56.910Z,8.60
2022-11-19T00:39:23.328Z,9.03
2022-11-19T00:41:49.813Z,9.13
2022-11-19T00:44:16.231Z,9.20
2022-11-19T00:46:42.684Z,9.57
2022-11-19T00:49:09.206Z,8.47
2022-11-19T00:51:36.725Z,9.13
2022-11-19T00:54:03.216Z,7.80
2022-11-19T00:56:29.681Z,8.23
2022-11-19T00:58:56.182Z,7.70
2022-11-19T01:01:23.309Z,8.33
2022-11-19T01:03:50.033Z,8.33
2022-11-19T01:06:19.399Z,7.77
2022-11-19T01:08:46.612Z,8.43
2022-11-19T01:11:14.352Z,9.07
2022-11-19T01:13:40.936Z,9.40
2022-11-19T01:16:08.882Z,8.27
2022-11-19T01:18:36.283Z,9.97
2022-11-19T01:21:02.890Z,10.23
2022-11-19T01:23:29.338Z,9.70
2022-11-19T01:25:55.858Z,8.70
2022-11-19T01:28:22.284Z,8.43
2022-11-19T01:30:48.819Z,9.47
2022-11-19T01:33:15.371Z,9.17
2022-11-19T01:35:41.891Z,9.43
2022-11-19T01:38:08.402Z,9.20
2022-11-19T01:40:40.742Z,10.17
2022-11-19T01:43:09.591Z,10.10
2022-11-19T01:45:40.378Z,9.80
2022-11-19T01:48:06.818Z,8.77
2022-11-19T01:50:33.938Z,9.73
2022-11-19T01:53:00.380Z,9.70
2022-11-19T01:55:26.828Z,11.20
2022-11-19T01:57:56.863Z,11.07
2022-11-19T02:00:23.403Z,10.43
2022-11-19T02:02:49.904Z,11.43
2022-11-19T02:05:16.399Z,10.60
2022-11-19T02:07:43.646Z,11.47
2022-11-19T02:10:10.092Z,10.93
2022-11-19T02:12:45.549Z,12.60
2022-11-19T02:15:18.070Z,12.30
2022-11-19T02:17:52.448Z,12.07
2022-11-19T02:20:38.062Z,12.67
2022-11-19T02:23:23.210Z,12.63
2022-11-19T02:25:52.626Z,12.87
2022-11-19T02:28:22.130Z,12.83
2022-11-19T02:30:49.900Z,10.43
2022-11-19T02:33:22.787Z,11.13
2022-11-19T02:36:04.883Z,10.53
2022-11-19T02:38:32.395Z,12.03
2022-11-19T02:40:59.675Z,12.43
2022-11-19T02:43:29.162Z,12.73
2022-11-19T02:46:14.622Z,12.37
2022-11-19T02:48:46.518Z,13.20
2022-11-19T02:51:12.966Z,12.63
2022-11-19T02:53:39.406Z,14.27
2022-11-19T02:56:17.740Z,14.10
2022-11-19T02:59:12.104Z,12.67
2022-11-19T03:01:57.749Z,13.83
2022-11-19T03:04:30.283Z,13.17
2022-11-19T03:07:07.470Z,12.10
2022-11-19T03:09:34.698Z,13.03
2022-11-19T03:12:08.126Z,14.83
2022-11-19T03:14:58.113Z,15.63
2022-11-19T03:17:28.734Z,14.37
2022-11-19T03:20:14.997Z,15.23
2022-11-19T03:22:51.998Z,14.07
2022-11-19T03:25:57.054Z,14.93
2022-11-19T03:28:24.512Z,13.83
2022-11-19T03:30:50.926Z,14.90
2022-11-19T03:33:18.789Z,13.77
2022-11-19T03:35:46.569Z,13.40
2022-11-19T03:38:15.029Z,12.53
2022-11-19T03:40:41.440Z,13.40
2022-11-19T03:43:08.338Z,14.33
2022-11-19T03:45:36.023Z,13.47
2022-11-19T03:48:02.486Z,13.57
2022-11-19T03:50:47.392Z,13.93
2022-11-19T03:53:13.863Z,14.37
2022-11-19T03:55:42.982Z,12.67
2022-11-19T03:58:09.807Z,14.60
2022-11-19T04:00:36.271Z,14.97
2022-11-19T04:03:02.741Z,14.47
2022-11-19T04:05:29.184Z,14.00
2022-11-19T04:07:55.627Z,12.43
2022-11-19T04:10:22.073Z,12.60
2022-11-19T04:12:48.657Z,12.90
2022-11-19T04:15:15.149Z,12.23
2022-11-19T04:17:41.656Z,12.93
2022-11-19T04:20:08.437Z,12.13
2022-11-19T04:22:34.896Z,14.07
2022-11-19T04:25:01.283Z,13.07
2022-11-19T04:27:27.757Z,14.20
2022-11-19T04:29:54.191Z,12.77
2022-11-19T04:32:20.595Z,12.90
2022-11-19T04:34:47.081Z,13.30
2022-11-19T04:37:13.487Z,12.50
2022-11-19T04:39:39.937Z,12.73
2022-11-19T04:42:06.486Z,13.97
2022-11-19T04:44:33.343Z,13.43
2022-11-19T04:46:59.897Z,14.27
2022-11-19T04:49:26.341Z,12.87
2022-11-19T04:51:53.190Z,13.87
2022-11-19T04:54:19.605Z,14.87
2022-11-19T04:56:46.037Z,15.07
2022-11-19T04:59:12.447Z,13.13
2022-11-19T05:01:38.927Z,13.37
2022-11-19T05:04:05.368Z,14.27
2022-11-19T05:06:31.847Z,14.07
2022-11-19T05:08:58.272Z,14.67
2022-11-19T05:11:24.668Z,14.17
2022-11-19T05:13:51.089Z,13.47
2022-11-19T05:16:17.519Z,12.77
2022-11-19T05:18:43.944Z,15.70
2022-11-19T05:21:10.407Z,14.07
2022-11-19T05:23:36.853Z,14.23
2022-11-19T05:26:03.246Z,14.63
2022-11-19T05:28:38.564Z,15.07
2022-11-19T05:31:05.947Z,13.67
2022-11-19T05:33:34.311Z,15.27
2022-11-19T05:36:01.060Z,15.83
2022-11-19T05:38:27.455Z,15.70
2022-11-19T05:40:53.890Z,17.30
2022-11-19T05:43:20.323Z,16.80
2022-11-19T05:45:46.736Z,16.83
2022-11-19T05:48:13.131Z,17.87
2022-11-19T05:50:40.964Z,17.20
2022-11-19T05:53:07.355Z,17.50
2022-11-19T05:55:33.808Z,17.07
2022-11-19T05:58:00.207Z,17.20
2022-11-19T06:00:26.669Z,17.73
2022-11-19T06:02:53.140Z,17.13
2022-11-19T06:05:19.741Z,19.40
2022-11-19T06:07:46.165Z,20.37
2022-11-19T06:10:12.615Z,21.17
2022-11-19T06:12:44.125Z,19.60
2022-11-19T06:15:11.932Z,18.73
2022-11-19T06:17:38.363Z,19.53
2022-11-19T06:20:05.075Z,17.33
2022-11-19T06:22:31.516Z,18.00
2022-11-19T06:24:57.931Z,15.47
2022-11-19T06:27:24.346Z,17.27
2022-11-19T06:29:55.987Z,16.73
2022-11-19T06:32:22.713Z,17.23
2022-11-19T06:34:49.175Z,18.10
2022-11-19T06:37:15.620Z,18.07
2022-11-19T06:39:42.101Z,18.20
2022-11-19T06:42:27.363Z,18.47
2022-11-19T06:44:53.775Z,18.53
2022-11-19T06:47:20.204Z,17.87
2022-11-19T06:49:46.659Z,17.03
2022-11-19T06:52:13.085Z,15.43
2022-11-19T06:54:42.972Z,16.73
2022-11-19T06:57:09.829Z,16.30
2022-11-19T06:59:36.338Z,17.13
2022-11-19T07:02:03.034Z,16.13
2022-11-19T07:04:29.525Z,17.03
2022-11-19T07:06:56.004Z,15.77
2022-11-19T07:09:22.469Z,16.83
2022-11-19T07:11:48.883Z,15.13
2022-11-19T07:14:15.318Z,17.53
2022-11-19T07:16:41.750Z,18.20
2022-11-19T07:19:08.608Z,19.80
2022-11-19T07:21:35.064Z,20.67
2022-11-19T07:24:02.082Z,20.00
2022-11-19T07:26:28.542Z,19.10
2022-11-19T07:28:54.993Z,20.13
2022-11-19T07:31:21.439Z,20.13
2022-11-19T07:33:47.864Z,17.53
2022-11-19T07:36:18.324Z,18.33
2022-11-19T07:38:44.959Z,16.63
2022-11-19T07:41:30.242Z,14.47
2022-11-19T07:43:56.693Z,15.80
2022-11-19T07:46:23.397Z,15.87
2022-11-19T07:48:53.861Z,16.90
2022-11-19T07:51:20.434Z,16.70
2022-11-19T07:53:46.915Z,17.20
2022-11-19T07:56:13.378Z,17.30
2022-11-19T07:58:39.831Z,17.67
2022-11-19T08:01:24.483Z,17.90
2022-11-19T08:03:56.010Z,19.23
2022-11-19T08:06:23.471Z,16.20
2022-11-19T08:08:49.906Z,16.83
2022-11-19T08:11:16.526Z,17.87
2022-11-19T08:13:42.979Z,18.70
2022-11-19T08:16:10.206Z,20.50
2022-11-19T08:18:36.748Z,18.30
2022-11-19T08:21:12.304Z,18.83
2022-11-19T08:23:38.852Z,17.10
2022-11-19T08:26:08.404Z,17.57
2022-11-19T08:28:34.861Z,16.80
2022-11-19T08:31:07.657Z,18.87
2022-11-19T08:33:34.368Z,21.03
2022-11-19T08:36:00.894Z,17.17
2022-11-19T08:38:27.355Z,16.03
2022-11-19T08:41:13.840Z,16.67
2022-11-19T08:43:40.479Z,17.63
2022-11-19T08:46:07.003Z,18.10
2022-11-19T08:48:33.578Z,16.77
2022-11-19T08:51:03.135Z,15.77
2022-11-19T08:53:29.564Z,16.43
2022-11-19T08:55:56.068Z,17.13
2022-11-19T08:58:22.632Z,18.23
2022-11-19T09:00:50.184Z,16.87
2022-11-19T09:03:16.821Z,15.70
2022-11-19T09:05:43.253Z,16.33
2022-11-19T09:08:09.721Z,16.47
2022-11-19T09:10:37.211Z,16.90
2022-11-19T09:13:06.862Z,16.53
2022-11-19T09:15:33.263Z,16.97
2022-11-19T09:17:59.703Z,16.33
2022-11-19T09:20:26.206Z,16.33
2022-11-19T09:22:52.671Z,18.07
2022-11-19T09:25:19.201Z,18.73
2022-11-19T09:27:45.617Z,17.87
2022-11-19T09:30:12.315Z,15.33
2022-11-19T09:32:38.780Z,16.07
2022-11-19T09:35:05.413Z,15.53
2022-11-19T09:37:34.175Z,14.63
2022-11-19T09:40:00.739Z,15.27
2022-11-19T09:42:39.824Z,15.33
2022-11-19T09:45:06.255Z,16.60
2022-11-19T09:47:48.052Z,15.13
2022-11-19T09:50:24.216Z,16.17
2022-11-19T09:52:56.662Z,15.27
2022-11-19T09:55:28.479Z,15.93
2022-11-19T09:57:55.337Z,15.30
2022-11-19T10:00:22.999Z,16.47
2022-11-19T10:02:49.777Z,15.37
2022-11-19T10:05:17.470Z,16.73
2022-11-19T10:07:50.791Z,15.93
2022-11-19T10:10:23.260Z,16.07
2022-11-19T10:13:16.212Z,16.67
2022-11-19T10:15:42.644Z,17.40
2022-11-19T10:18:24.712Z,18.60
2022-11-19T10:20:51.162Z,17.47
2022-11-19T10:23:23.599Z,17.40
2022-11-19T10:25:50.646Z,19.23
2022-11-19T10:28:46.418Z,18.60
2022-11-19T10:31:39.208Z,16.23
2022-11-19T10:34:07.764Z,15.43
2022-11-19T10:36:36.682Z,16.23
2022-11-19T10:39:07.518Z,16.40
2022-11-19T10:41:42.698Z,15.80
2022-11-19T10:44:09.135Z,17.20
2022-11-19T10:46:35.582Z,25.63
2022-11-19T10:49:02.354Z,20.10
2022-11-19T10:51:29.623Z,17.43
2022-11-19T10:53:56.119Z,16.57
2022-11-19T10:56:23.262Z,15.67
2022-11-19T10:59:01.704Z,16.77
2022-11-19T11:01:32.155Z,16.67
2022-11-19T11:03:58.587Z,13.87
2022-11-19T11:06:25.148Z,13.33
2022-11-19T11:08:52.350Z,11.90
2022-11-19T11:11:26.119Z,12.07
2022-11-19T11:14:11.333Z,11.40
2022-11-19T11:16:45.617Z,10.93
2022-11-19T11:19:14.931Z,11.47
2022-11-19T11:21:43.192Z,10.80
2022-11-19T11:24:10.567Z,10.60
2022-11-19T11:26:38.127Z,11.00
2022-11-19T11:29:05.359Z,10.37
2022-11-19T11:31:40.910Z,9.70
2022-11-19T11:34:13.499Z,9.17
2022-11-19T11:36:39.918Z,9.13
2022-11-19T11:39:06.437Z,8.87
2022-11-19T11:44:29.954Z,9.67
2022-11-19T11:47:00.926Z,9.27
2022-11-19T11:49:35.243Z,10.00
2022-11-19T11:52:16.021Z,10.00
2022-11-19T11:55:01.615Z,10.40
2022-11-19T11:57:34.940Z,10.57
2022-11-19T12:00:01.663Z,10.77
2022-11-19T12:02:32.730Z,11.23
2022-11-19T12:05:00.413Z,10.20
2022-11-19T12:07:36.868Z,10.47
2022-11-19T12:10:22.186Z,10.80
2022-11-19T12:12:51.719Z,10.93
2022-11-19T12:15:20.191Z,11.70
2022-11-19T12:18:05.871Z,11.93
2022-11-19T12:20:35.901Z,12.57
2022-11-19T12:23:02.366Z,10.93
2022-11-19T12:25:33.862Z,11.67
2022-11-19T12:28:00.286Z,11.50
2022-11-19T12:30:30.855Z,13.90
2022-11-19T12:33:01.117Z,12.83
2022-11-19T12:35:33.756Z,12.03
2022-11-19T12:38:04.121Z,11.27
2022-11-19T12:40:39.617Z,10.23
2022-11-19T12:43:13.218Z,13.77
2022-11-19T12:45:50.974Z,12.43
2022-11-19T12:48:30.197Z,13.07
2022-11-19T12:50:56.720Z,12.00
2022-11-19T12:53:26.152Z,11.30
2022-11-19T12:55:58.705Z,11.20
2022-11-19T12:58:43.070Z,9.83
2022-11-19T13:01:10.463Z,9.97
2022-11-19T13:03:43.092Z,9.83
2022-11-19T13:06:15.326Z,10.27
2022-11-19T13:08:47.446Z,9.57
2022-11-19T13:11:40.365Z,11.13
2022-11-19T13:14:09.653Z,9.67
2022-11-19T13:16:36.266Z,10.00
2022-11-19T13:19:07.611Z,10.13
2022-11-19T13:21:37.870Z,9.80
2022-11-19T13:24:12.234Z,10.37
2022-11-19T13:26:38.648Z,10.70
2022-11-19T13:29:23.865Z,10.90
2022-11-19T13:32:01.416Z,11.53
2022-11-19T13:34:35.460Z,10.97
2022-11-19T13:37:07.974Z,11.53
2022-11-19T13:39:39.925Z,11.13
2022-11-19T13:42:25.104Z,10.67
2022-11-19T13:44:51.712Z,11.63
2022-11-19T13:47:20.391Z,11.67
2022-11-19T13:49:48.041Z,12.40
2022-11-19T13:52:29.758Z,13.13
2022-11-19T13:54:59.135Z,13.63
2022-11-19T13:57:35.305Z,13.60
2022-11-19T14:00:05.693Z,14.40
2022-11-19T14:02:38.190Z,14.63
2022-11-19T14:05:07.451Z,16.03
2022-11-19T14:07:46.016Z,16.00
2022-11-19T14:10:12.489Z,15.07
2022-11-19T14:12:51.173Z,15.40
2022-11-19T14:15:39.413Z,16.03
2022-11-19T14:18:36.526Z,15.80
2022-11-19T14:21:44.734Z,15.80
2022-11-19T14:24:45.010Z,15.17
2022-11-19T14:27:15.475Z,16.03
2022-11-19T14:29:41.876Z,16.40
2022-11-19T14:32:17.372Z,16.77
2022-11-19T14:34:50.142Z,16.97
2022-11-19T14:37:20.991Z,17.17
2022-11-19T14:39:50.915Z,17.67
2022-11-19T14:42:21.282Z,17.70
2022-11-19T14:45:03.057Z,17.83
2022-11-19T14:47:33.776Z,20.00
2022-11-19T14:50:00.813Z,23.63
2022-11-19T14:52:28.515Z,23.90
2022-11-19T14:54:57.990Z,23.00
2022-11-19T14:57:27.680Z,20.80
2022-11-19T14:59:55.465Z,23.37
2022-11-19T15:02:26.344Z,23.07
2022-11-19T15:05:04.609Z,22.17
2022-11-19T15:07:41.558Z,23.47
2022-11-19T15:10:29.071Z,23.83
2022-11-19T15:13:02.455Z,25.43
2022-11-19T15:15:34.328Z,27.00
2022-11-19T15:18:02.114Z,41.77
2022-11-19T15:20:29.349Z,54.23
2022-11-19T15:22:55.779Z,47.57
2022-11-19T15:25:27.114Z,48.37
2022-11-19T15:28:11.838Z,40.33
2022-11-19T15:30:54.229Z,32.27
2022-11-19T15:33:20.698Z,33.20
2022-11-19T15:36:02.464Z,38.43
2022-11-19T15:38:48.434Z,43.03
2022-11-19T15:41:15.968Z,43.37
2022-11-19T15:43:43.827Z,47.40
2022-11-19T15:46:11.594Z,47.07
2022-11-19T15:48:40.998Z,48.60
2022-11-19T15:51:07.432Z,43.30
2022-11-19T15:53:33.960Z,38.17
2022-11-19T15:56:02.562Z,41.90
2022-11-19T15:58:32.069Z,40.53
2022-11-19T16:00:58.515Z,38.37
2022-11-19T16:03:24.947Z,33.23
2022-11-19T16:06:00.722Z,33.83
2022-11-19T16:08:27.187Z,32.17
2022-11-19T16:11:17.292Z,34.50
2022-11-19T16:14:08.821Z,31.77
2022-11-19T16:16:54.074Z,27.13
2022-11-19T16:19:20.711Z,28.37
2022-11-19T16:21:57.565Z,25.37
2022-11-19T16:24:42.763Z,26.77
2022-11-19T16:27:10.306Z,31.60
2022-11-19T16:29:39.353Z,30.23
2022-11-19T16:32:05.829Z,28.37
2022-11-19T16:34:32.565Z,31.40
2022-11-19T16:36:59.024Z,27.53
2022-11-19T16:39:26.345Z,27.47
2022-11-19T16:42:15.459Z,28.20
2022-11-19T16:44:42.680Z,28.67
2022-11-19T16:47:14.007Z,28.43
2022-11-19T16:49:41.437Z,26.20
2022-11-19T16:52:07.900Z,27.80
2022-11-19T16:54:52.539Z,29.93
2022-11-19T16:57:22.087Z,32.80
2022-11-19T16:59:49.140Z,33.40
2022-11-19T17:02:16.205Z,35.27
2022-11-19T17:04:46.197Z,28.67
2022-11-19T17:07:14.520Z,28.63
2022-11-19T17:09:42.512Z,29.33
2022-11-19T17:12:21.896Z,31.17
2022-11-19T17:14:52.522Z,32.27
2022-11-19T17:17:29.261Z,34.67
2022-11-19T17:19:58.716Z,37.60
2022-11-19T17:22:30.849Z,42.30
2022-11-19T17:24:57.257Z,46.47
2022-11-19T17:27:32.853Z,50.43
2022-11-19T17:30:02.175Z,41.20
2022-11-19T17:32:55.108Z,36.77
2022-11-19T17:35:30.764Z,38.23
2022-11-19T17:37:58.380Z,37.90
2022-11-19T17:40:24.787Z,36.73
2022-11-19T17:43:10.174Z,37.33
2022-11-19T17:45:37.728Z,38.43
2022-11-19T17:48:09.541Z,36.30
2022-11-19T17:50:35.965Z,38.00
2022-11-19T17:53:02.380Z,37.27
2022-11-19T17:55:28.815Z,42.27
2022-11-19T17:57:55.251Z,81.93
2022-11-19T18:00:21.699Z,76.60
2022-11-19T18:02:48.908Z,87.00
2022-11-19T18:05:16.306Z,82.83
2022-11-19T18:07:42.789Z,85.57
2022-11-19T18:10:09.439Z,76.70
2022-11-19T18:12:35.927Z,85.37
2022-11-19T18:15:02.491Z,91.63
2022-11-19T18:17:28.942Z,76.97
2022-11-19T18:19:55.405Z,67.17
2022-11-19T18:22:21.914Z,57.57
2022-11-19T18:24:48.666Z,70.77
2022-11-19T18:27:15.395Z,69.67
2022-11-19T18:29:42.155Z,63.10
2022-11-19T18:32:10.452Z,59.40
2022-11-19T18:34:36.899Z,55.13
2022-11-19T18:37:03.396Z,48.97
2022-11-19T18:39:29.843Z,49.23
2022-11-19T18:41:56.310Z,50.43
2022-11-19T18:44:35.188Z,61.90
2022-11-19T18:47:02.333Z,82.30
2022-11-19T18:49:28.929Z,98.57
2022-11-19T18:51:55.481Z,80.83
2022-11-19T18:54:22.060Z,70.83
2022-11-19T18:56:48.536Z,68.30
2022-11-19T18:59:15.035Z,70.37
2022-11-19T19:01:41.549Z,71.30
2022-11-19T19:04:08.872Z,76.33
2022-11-19T19:06:35.601Z,75.23
2022-11-19T19:09:02.171Z,80.33
2022-11-19T19:11:47.272Z,65.20
2022-11-19T19:14:13.734Z,72.83
2022-11-19T19:16:40.166Z,79.73
2022-11-19T19:19:06.662Z,80.27
2022-11-19T19:21:33.882Z,88.40
2022-11-19T19:24:00.372Z,77.10
2022-11-19T19:26:26.822Z,57.47
2022-11-19T19:28:54.155Z,52.43
2022-11-19T19:31:21.118Z,42.20
2022-11-19T19:33:48.022Z,49.03
2022-11-19T19:36:14.611Z,40.03
2022-11-19T19:38:41.308Z,38.77
2022-11-19T19:41:08.526Z,40.97
2022-11-19T19:43:35.036Z,41.40
2022-11-19T19:46:08.944Z,39.13
2022-11-19T19:48:35.700Z,40.63
2022-11-19T19:51:02.306Z,37.37
2022-11-19T19:53:28.785Z,35.60
2022-11-19T19:56:04.686Z,33.43
2022-11-19T19:58:31.459Z,30.63
2022-11-19T20:01:07.752Z,29.47
2022-11-19T20:03:35.052Z,26.67
2022-11-19T20:06:05.095Z,26.00
2022-11-19T20:08:31.679Z,26.87
2022-11-19T20:11:01.523Z,23.93
2022-11-19T20:13:27.947Z,22.33
2022-11-19T20:15:58.455Z,23.77
2022-11-19T20:18:25.095Z,23.33
2022-11-19T20:20:51.631Z,25.90
2022-11-19T20:23:18.069Z,24.63
2022-11-19T20:25:44.591Z,24.70
2022-11-19T20:28:11.034Z,24.40
2022-11-19T20:30:37.474Z,24.77
2022-11-19T20:33:03.909Z,24.80
2022-11-19T20:35:30.351Z,25.00
2022-11-19T20:38:00.793Z,28.93
2022-11-19T20:40:29.666Z,27.20
2022-11-19T20:43:15.002Z,31.53
2022-11-19T20:45:41.419Z,30.23
2022-11-19T20:48:07.851Z,29.63
2022-11-19T20:50:34.311Z,30.87
2022-11-19T20:53:01.979Z,32.03
2022-11-19T20:55:28.562Z,31.27
2022-11-19T20:57:55.764Z,33.97
2022-11-19T21:00:22.258Z,32.43
2022-11-19T21:02:48.655Z,33.13
2022-11-19T21:05:15.104Z,32.40
2022-11-19T21:07:41.669Z,33.43
2022-11-19T21:10:08.339Z,36.37
2022-11-19T21:12:34.777Z,29.57
2022-11-19T21:15:02.172Z,29.77
2022-11-19T21:17:28.651Z,30.37
2022-11-19T21:19:55.088Z,30.23
2022-11-19T21:22:21.518Z,31.60
2022-11-19T21:24:47.973Z,28.97
2022-11-19T21:27:14.538Z,32.70
2022-11-19T21:29:41.073Z,31.90
2022-11-19T21:32:08.241Z,31.30
2022-11-19T21:34:34.730Z,31.53
2022-11-19T21:37:01.324Z,32.13
2022-11-19T21:39:27.817Z,33.57
2022-11-19T21:41:54.326Z,30.37
2022-11-19T21:44:22.063Z,34.73
2022-11-19T21:46:48.764Z,31.73
2022-11-19T21:49:15.429Z,32.90
2022-11-19T21:51:41.888Z,33.33
2022-11-19T21:54:08.322Z,38.90
2022-11-19T21:56:38.445Z,44.70
2022-11-19T21:59:05.652Z,43.20
2022-11-19T22:01:32.109Z,40.83
2022-11-19T22:03:58.596Z,42.63
2022-11-19T22:06:25.084Z,39.43
2022-11-19T22:08:51.519Z,41.70
2022-11-19T22:11:30.517Z,42.20
2022-11-19T22:13:57.963Z,44.73
2022-11-19T22:16:24.412Z,43.33
2022-11-19T22:18:51.065Z,44.70
2022-11-19T22:21:17.758Z,42.10
2022-11-19T22:23:44.253Z,42.13
2022-11-19T22:26:10.905Z,45.70
2022-11-19T22:28:37.426Z,43.30
2022-11-19T22:31:03.873Z,42.77
2022-11-19T22:33:31.177Z,41.97
2022-11-19T22:35:59.270Z,43.80
2022-11-19T22:38:25.896Z,41.33
2022-11-19T22:40:52.366Z,39.80
2022-11-19T22:43:22.719Z,41.47
2022-11-19T22:45:49.477Z,42.13
2022-11-19T22:48:15.929Z,39.20
2022-11-19T22:50:42.566Z,38.23
2022-11-19T22:53:09.111Z,41.10
2022-11-19T22:55:35.710Z,38.37
2022-11-19T22:58:02.144Z,41.60
2022-11-19T23:00:47.878Z,36.80
2022-11-19T23:03:14.435Z,38.30
2022-11-19T23:05:40.948Z,38.57
2022-11-19T23:08:08.113Z,41.23
2022-11-19T23:10:34.624Z,37.97
2022-11-19T23:13:22.802Z,39.87
2022-11-19T23:16:08.104Z,39.07
2022-11-19T23:18:38.994Z,39.87
2022-11-19T23:21:06.615Z,38.30
2022-11-19T23:23:33.116Z,39.17
2022-11-19T23:25:59.960Z,39.90
2022-11-19T23:28:26.899Z,37.97
2022-11-19T23:30:53.394Z,37.17
2022-11-19T23:33:20.028Z,34.93
2022-11-19T23:35:46.464Z,36.57
2022-11-19T23:38:12.916Z,38.80
2022-11-19T23:40:39.334Z,38.00
2022-11-19T23:43:05.782Z,40.43
2022-11-19T23:45:35.995Z,38.43
2022-11-19T23:48:02.469Z,38.20
2022-11-19T23:50:28.905Z,38.23
2022-11-19T23:52:55.343Z,38.90
2022-11-19T23:55:21.775Z,36.93
2022-11-19T23:57:48.170Z,40.30
